Englee, Canada
Current Conditions -  °F | °C
As of 8:37 PM on Thursday 18 Dec 2014 (Local Time) from CYAY Reporting Station
Freezing Rain Freezing Rain  
Wind Chill: 22°   Ceiling: 300
Heat Index: 32°   Visibility: 3mi
Dew Point: 32°   Wind: 15mph
Humidity: 100%   Direction: 90°E
Pressure: 29.76"   Gusts: 23mph
Location:  50.73°N, 56.1°W
Report Text: CYAY 182337Z AUTO 09013G20KT 3SM -FZRA BR OVC003 00/00 A2976 RMK ICG SLP080
Loading
Personal Weather Stations






























Interactive Weather Map New forecast layout! Learn more

10-Day Weather Forecast

Advertisements
Track Severe Weather on mobile